createdAt,value
2017-09-20T00:00:02.681Z,99.99
2017-09-20T00:01:02.678Z,99.99
2017-09-20T00:02:02.993Z,99.99
2017-09-20T00:03:02.649Z,99.99
2017-09-20T00:04:02.963Z,99.99
2017-09-20T00:05:02.962Z,99.99
2017-09-20T00:06:02.951Z,99.99
2017-09-20T00:07:02.613Z,99.99
2017-09-20T00:08:02.599Z,99.99
2017-09-20T00:09:02.598Z,99.99
2017-09-20T00:10:02.579Z,99.99
2017-09-20T00:11:02.569Z,99.99
2017-09-20T00:12:02.580Z,99.99
2017-09-20T00:13:02.544Z,99.99
2017-09-20T00:14:02.865Z,99.99
2017-09-20T00:15:02.524Z,99.99
2017-09-20T00:16:02.536Z,99.99
2017-09-20T00:17:02.840Z,99.99
2017-09-20T00:18:02.496Z,99.99
2017-09-20T00:19:02.485Z,99.99
2017-09-20T00:20:02.833Z,99.99
2017-09-20T00:21:02.798Z,99.99
2017-09-20T00:22:02.780Z,99.99
2017-09-20T00:23:02.443Z,99.99
2017-09-20T00:24:02.434Z,99.99
2017-09-20T00:25:02.420Z,99.99
2017-09-20T00:26:02.414Z,99.99
2017-09-20T00:27:02.404Z,99.99
2017-09-20T00:28:02.721Z,99.99
2017-09-20T00:29:02.713Z,99.99
2017-09-20T00:30:02.372Z,99.99
2017-09-20T00:31:02.362Z,99.99
2017-09-20T00:32:02.681Z,99.99
2017-09-20T00:33:02.340Z,99.99
2017-09-20T00:34:02.332Z,99.99
2017-09-20T00:35:02.646Z,99.99
2017-09-20T00:36:02.637Z,99.99
2017-09-20T00:37:02.627Z,99.99
2017-09-20T00:38:02.618Z,99.99
2017-09-20T00:39:02.627Z,99.99
2017-09-20T00:40:02.271Z,99.99
2017-09-20T00:41:02.276Z,99.99
2017-09-20T00:42:02.249Z,99.99
2017-09-20T00:43:02.235Z,99.99
2017-09-20T00:44:02.563Z,99.99
2017-09-20T00:45:02.219Z,99.99
2017-09-20T00:46:02.204Z,99.99
2017-09-20T00:47:02.218Z,99.99
2017-09-20T00:48:02.188Z,99.99
2017-09-20T00:49:02.502Z,99.99
2017-09-20T00:50:02.184Z,99.99
2017-09-20T00:51:02.165Z,99.99
2017-09-20T00:52:02.470Z,99.99
2017-09-20T00:53:02.135Z,99.99
2017-09-20T00:54:02.123Z,99.99
2017-09-20T00:55:02.443Z,99.99
2017-09-20T00:56:02.103Z,99.99
2017-09-20T00:57:02.095Z,99.99
2017-09-20T00:58:02.105Z,99.99
2017-09-20T00:59:02.412Z,99.99
2017-09-20T01:00:02.066Z,99.99
2017-09-20T01:01:02.054Z,99.99
2017-09-20T01:02:02.054Z,99.99
2017-09-20T01:03:02.034Z,99.99
2017-09-20T01:04:02.025Z,99.99
2017-09-20T01:05:02.342Z,99.99
2017-09-20T01:06:02.018Z,99.99
2017-09-20T01:07:01.992Z,99.99
2017-09-20T01:08:01.982Z,99.99
2017-09-20T01:09:02.004Z,99.99
2017-09-20T01:10:01.964Z,99.99
2017-09-20T01:11:01.947Z,99.99
2017-09-20T01:12:02.267Z,99.99
2017-09-20T01:13:01.932Z,99.99
2017-09-20T01:14:01.922Z,99.99
2017-09-20T01:15:01.964Z,99.99
2017-09-20T01:16:02.227Z,99.99
2017-09-20T01:17:01.901Z,99.99
2017-09-20T01:18:01.894Z,99.99
2017-09-20T01:19:02.199Z,99.99
2017-09-20T01:20:02.190Z,99.99
2017-09-20T01:21:02.185Z,99.99
2017-09-20T01:22:01.859Z,99.99
2017-09-20T01:23:01.863Z,99.99
2017-09-20T01:24:02.155Z,99.99
2017-09-20T01:25:01.807Z,99.99
2017-09-20T01:26:01.796Z,99.99
2017-09-20T01:27:01.796Z,99.99
2017-09-20T01:28:01.776Z,99.99
2017-09-20T01:29:01.768Z,99.99
2017-09-20T01:30:01.756Z,99.99
2017-09-20T01:31:01.745Z,99.99
2017-09-20T01:32:02.065Z,99.99
2017-09-20T01:33:01.731Z,99.99
2017-09-20T01:34:01.714Z,99.99
2017-09-20T01:35:01.705Z,99.99
2017-09-20T01:36:01.693Z,99.99
2017-09-20T01:37:02.015Z,99.99
2017-09-20T01:38:01.670Z,99.99
2017-09-20T01:39:01.988Z,99.99
2017-09-20T01:40:01.654Z,99.99
2017-09-20T01:41:01.968Z,99.99
2017-09-20T01:42:01.629Z,99.99
2017-09-20T01:43:01.621Z,99.99
2017-09-20T01:44:01.608Z,99.99
2017-09-20T01:45:01.601Z,99.99
2017-09-20T01:46:01.591Z,99.99
2017-09-20T01:47:01.579Z,99.99
2017-09-20T01:48:01.903Z,99.99
2017-09-20T01:49:01.560Z,99.99
2017-09-20T01:50:01.548Z,99.99
2017-09-20T01:51:01.546Z,99.99
2017-09-20T01:52:01.549Z,99.99
2017-09-20T01:53:01.520Z,99.99
2017-09-20T01:54:01.509Z,99.99
2017-09-20T01:55:01.500Z,99.99
2017-09-20T01:56:01.488Z,99.99
2017-09-20T01:57:01.476Z,99.99
2017-09-20T01:58:01.472Z,99.99
2017-09-20T01:59:01.458Z,99.99
2017-09-20T02:00:01.446Z,99.99
2017-09-20T02:01:01.485Z,99.99
2017-09-20T02:02:01.426Z,99.99
2017-09-20T02:03:01.419Z,99.99
2017-09-20T02:04:01.406Z,99.99
2017-09-20T02:05:01.722Z,99.99
2017-09-20T02:06:01.714Z,99.99
2017-09-20T02:07:01.706Z,99.99
2017-09-20T02:08:01.398Z,99.99
2017-09-20T02:09:01.690Z,99.99
2017-09-20T02:10:01.355Z,99.99
2017-09-20T02:11:01.366Z,99.99
2017-09-20T02:12:01.376Z,99.99
2017-09-20T02:13:01.346Z,99.99
2017-09-20T02:14:01.332Z,99.99
2017-09-20T02:15:01.335Z,99.99
2017-09-20T02:16:01.288Z,99.99
2017-09-20T02:17:01.626Z,99.99
2017-09-20T02:18:01.648Z,99.99
2017-09-20T02:19:01.587Z,99.99
2017-09-20T02:20:01.583Z,99.99
2017-09-20T02:21:01.243Z,99.99
2017-09-20T02:22:01.223Z,99.99
2017-09-20T02:23:01.553Z,99.99
2017-09-20T02:24:01.536Z,99.99
2017-09-20T02:25:01.524Z,99.99
2017-09-20T02:26:01.186Z,99.99
2017-09-20T02:27:01.511Z,99.99
2017-09-20T02:28:01.496Z,99.99
2017-09-20T02:29:01.155Z,99.99
2017-09-20T02:30:01.149Z,99.99
2017-09-20T02:31:01.137Z,99.99
2017-09-20T02:32:01.125Z,99.99
2017-09-20T02:33:01.116Z,99.99
2017-09-20T02:34:01.466Z,99.99
2017-09-20T02:35:01.425Z,99.99
2017-09-20T02:36:01.088Z,99.99
2017-09-20T02:37:01.074Z,99.99
2017-09-20T02:38:01.407Z,99.99
2017-09-20T02:39:01.058Z,99.99
2017-09-20T02:40:01.043Z,99.99
2017-09-20T02:41:01.034Z,99.99
2017-09-20T02:42:01.026Z,99.99
2017-09-20T02:43:01.038Z,99.99
2017-09-20T02:44:01.004Z,99.99
2017-09-20T02:45:01.009Z,99.99
2017-09-20T02:46:00.982Z,99.99
2017-09-20T02:47:01.327Z,99.99
2017-09-20T02:48:00.965Z,99.99
2017-09-20T02:49:01.281Z,99.99
2017-09-20T02:50:00.945Z,99.99
2017-09-20T02:51:01.279Z,99.99
2017-09-20T02:52:01.252Z,99.99
2017-09-20T02:53:00.914Z,99.99
2017-09-20T02:54:00.904Z,99.99
2017-09-20T02:55:00.912Z,99.99
2017-09-20T02:56:00.906Z,99.99
2017-09-20T02:57:00.875Z,99.99
2017-09-20T02:58:01.192Z,99.99
2017-09-20T02:59:00.864Z,99.99
2017-09-20T03:00:00.844Z,99.99
2017-09-20T03:01:00.839Z,99.99
2017-09-20T03:02:00.824Z,99.99
2017-09-20T03:03:00.813Z,99.99
2017-09-20T03:04:00.804Z,99.99
2017-09-20T03:05:01.129Z,99.99
2017-09-20T03:06:01.112Z,99.99
2017-09-20T03:07:01.114Z,99.99
2017-09-20T03:08:01.093Z,99.99
2017-09-20T03:09:00.754Z,99.99
2017-09-20T03:10:00.746Z,99.99
2017-09-20T03:11:01.061Z,99.99
2017-09-20T03:12:00.722Z,99.99
2017-09-20T03:13:00.713Z,99.99
2017-09-20T03:14:01.047Z,99.99
2017-09-20T03:15:00.692Z,99.99
2017-09-20T03:16:01.009Z,99.99
2017-09-20T03:17:01.005Z,99.99
2017-09-20T03:18:00.665Z,99.99
2017-09-20T03:19:00.674Z,99.99
2017-09-20T03:20:00.664Z,99.99
2017-09-20T03:21:00.972Z,99.99
2017-09-20T03:22:00.624Z,99.99
2017-09-20T03:23:00.939Z,99.99
2017-09-20T03:24:00.941Z,99.99
2017-09-20T03:25:00.922Z,99.99
2017-09-20T03:26:00.909Z,99.99
2017-09-20T03:27:00.572Z,99.99
2017-09-20T03:28:00.561Z,99.99
2017-09-20T03:29:00.553Z,99.99
2017-09-20T03:30:00.542Z,99.99
2017-09-20T03:31:00.550Z,99.99
2017-09-20T03:32:00.523Z,99.99
2017-09-20T03:33:00.848Z,99.99
2017-09-20T03:34:00.502Z,99.99
2017-09-20T03:35:00.492Z,99.99
2017-09-20T03:36:00.490Z,99.99
2017-09-20T03:37:00.473Z,99.99
2017-09-20T03:38:00.790Z,99.99
2017-09-20T03:39:00.454Z,99.99
2017-09-20T03:40:00.443Z,99.99
2017-09-20T03:41:00.458Z,99.99
2017-09-20T03:42:00.756Z,99.99
2017-09-20T03:43:00.420Z,99.99
2017-09-20T03:44:00.423Z,99.99
2017-09-20T03:45:00.394Z,99.99
2017-09-20T03:46:00.397Z,99.99
2017-09-20T03:47:00.376Z,99.99
2017-09-20T03:48:00.367Z,99.99
2017-09-20T03:49:00.688Z,99.99
2017-09-20T03:50:00.354Z,99.99
2017-09-20T03:51:00.360Z,99.99
2017-09-20T03:52:00.661Z,99.99
2017-09-20T03:53:00.652Z,99.99
2017-09-20T03:54:00.311Z,99.99
2017-09-20T03:55:00.645Z,99.99
2017-09-20T03:56:00.309Z,99.99
2017-09-20T03:57:00.285Z,99.99
2017-09-20T03:58:00.274Z,99.99
2017-09-20T03:59:00.667Z,99.99
2017-09-20T04:00:00.271Z,99.99
2017-09-20T04:01:00.241Z,99.99
2017-09-20T04:02:00.230Z,99.99
2017-09-20T04:03:00.548Z,99.99
2017-09-20T04:04:00.562Z,99.99
2017-09-20T04:05:00.201Z,99.99
2017-09-20T04:06:00.549Z,99.99
2017-09-20T04:07:00.211Z,99.99
2017-09-20T04:08:00.169Z,99.99
2017-09-20T04:09:00.164Z,99.99
2017-09-20T04:10:00.165Z,99.99
2017-09-20T04:11:00.137Z,99.99
2017-09-20T04:12:00.129Z,99.99
2017-09-20T04:13:00.121Z,99.99
2017-09-20T04:14:00.113Z,99.99
2017-09-20T04:15:00.423Z,99.99
2017-09-20T04:16:00.086Z,99.99
2017-09-20T04:17:00.079Z,99.99
2017-09-20T04:18:00.068Z,99.99
2017-09-20T04:19:00.383Z,99.99
2017-09-20T04:20:00.046Z,99.99
2017-09-20T04:21:00.036Z,99.99
2017-09-20T04:22:00.352Z,99.99
2017-09-20T04:23:00.375Z,99.99
2017-09-20T04:24:00.003Z,99.99
2017-09-20T04:25:00.009Z,99.99
2017-09-20T04:25:59.984Z,99.99
2017-09-20T04:26:59.974Z,99.99
2017-09-20T04:28:00.319Z,99.99
2017-09-20T04:29:00.280Z,99.99
2017-09-20T04:29:59.947Z,99.99
2017-09-20T04:31:00.270Z,99.99
2017-09-20T04:31:59.923Z,99.99
2017-09-20T04:32:59.922Z,99.99
2017-09-20T04:34:00.234Z,99.99
2017-09-20T04:35:00.228Z,99.99
2017-09-20T04:36:00.233Z,99.99
2017-09-20T04:36:59.874Z,99.99
2017-09-20T04:38:00.189Z,99.99
2017-09-20T04:38:59.850Z,99.99
2017-09-20T04:40:00.187Z,99.99
2017-09-20T04:40:59.828Z,99.99
2017-09-20T04:41:59.846Z,99.99
2017-09-20T04:42:59.824Z,99.99
2017-09-20T04:43:59.815Z,99.99
2017-09-20T04:44:59.788Z,99.99
2017-09-20T04:45:59.777Z,99.99
2017-09-20T04:46:59.769Z,99.99
2017-09-20T04:47:59.756Z,99.99
2017-09-20T04:49:00.076Z,99.99
2017-09-20T04:49:59.738Z,99.99
2017-09-20T04:51:00.052Z,99.99
2017-09-20T04:51:59.714Z,99.99
2017-09-20T04:52:59.709Z,99.99
2017-09-20T04:54:00.046Z,99.99
2017-09-20T04:55:00.022Z,99.99
2017-09-20T04:55:59.675Z,99.99
2017-09-20T04:56:59.687Z,99.99
2017-09-20T04:57:59.653Z,99.99
2017-09-20T04:58:59.642Z,99.99
2017-09-20T04:59:59.635Z,99.99
2017-09-20T05:00:59.624Z,99.99
2017-09-20T05:01:59.629Z,99.99
2017-09-20T05:02:59.602Z,99.99
2017-09-20T05:03:59.918Z,99.99
2017-09-20T05:04:59.582Z,99.99
2017-09-20T05:05:59.901Z,99.99
2017-09-20T05:06:59.566Z,99.99
2017-09-20T05:07:59.881Z,99.99
2017-09-20T05:08:59.538Z,99.99
2017-09-20T05:09:59.529Z,99.99
2017-09-20T05:10:59.531Z,99.99
2017-09-20T05:11:59.933Z,99.99
2017-09-20T05:12:59.837Z,99.99
2017-09-20T05:13:59.500Z,99.99
2017-09-20T05:14:59.493Z,99.99
2017-09-20T05:15:59.466Z,99.99
2017-09-20T05:16:59.456Z,99.99
2017-09-20T05:17:59.448Z,99.99
2017-09-20T05:18:59.435Z,99.99
2017-09-20T05:19:59.423Z,99.99
2017-09-20T05:20:59.438Z,99.99
2017-09-20T05:21:59.731Z,99.99
2017-09-20T05:22:59.394Z,99.99
2017-09-20T05:23:59.383Z,99.99
2017-09-20T05:24:59.723Z,99.99
2017-09-20T05:25:59.364Z,99.99
2017-09-20T05:26:59.681Z,99.99
2017-09-20T05:27:59.364Z,99.99
2017-09-20T05:28:59.677Z,99.99
2017-09-20T05:29:59.322Z,99.99
2017-09-20T05:30:59.311Z,99.99
2017-09-20T05:31:59.300Z,99.99
2017-09-20T05:32:59.301Z,99.99
2017-09-20T05:33:59.304Z,99.99
2017-09-20T05:34:59.595Z,99.99
2017-09-20T05:35:59.585Z,99.99
2017-09-20T05:36:59.263Z,99.99
2017-09-20T05:37:59.582Z,99.99
2017-09-20T05:38:59.230Z,99.99
2017-09-20T05:39:59.557Z,99.99
2017-09-20T05:40:59.208Z,99.99
2017-09-20T05:41:59.195Z,99.99
2017-09-20T05:42:59.517Z,99.99
2017-09-20T05:43:59.179Z,99.99
2017-09-20T05:44:59.168Z,99.99
2017-09-20T05:45:59.170Z,99.99
2017-09-20T05:46:59.145Z,99.99
2017-09-20T05:47:59.486Z,99.99
2017-09-20T05:48:59.124Z,99.99
2017-09-20T05:49:59.442Z,99.99
2017-09-20T05:50:59.108Z,99.99
2017-09-20T05:51:59.424Z,99.99
2017-09-20T05:52:59.086Z,99.99
2017-09-20T05:53:59.073Z,99.99
2017-09-20T05:54:59.443Z,99.99
2017-09-20T05:55:59.055Z,99.99
2017-09-20T05:56:59.044Z,99.99
2017-09-20T05:57:59.036Z,99.99
2017-09-20T05:58:59.386Z,99.99
2017-09-20T05:59:59.013Z,99.99
2017-09-20T06:00:58.999Z,99.99
2017-09-20T06:01:58.995Z,99.99
2017-09-20T06:02:58.979Z,99.99
2017-09-20T06:03:59.298Z,99.99
2017-09-20T06:04:59.296Z,99.99
2017-09-20T06:05:58.948Z,99.99
2017-09-20T06:06:59.274Z,99.99
2017-09-20T06:07:58.929Z,99.99
2017-09-20T06:08:58.920Z,99.99
2017-09-20T06:09:58.911Z,99.99
2017-09-20T06:10:58.908Z,99.99
2017-09-20T06:11:58.888Z,99.99
2017-09-20T06:12:59.229Z,99.99
2017-09-20T06:13:58.866Z,99.99
2017-09-20T06:14:58.853Z,99.99
2017-09-20T06:15:58.844Z,99.99
2017-09-20T06:16:58.899Z,99.99
2017-09-20T06:17:58.826Z,99.99
2017-09-20T06:18:58.816Z,99.99
2017-09-20T06:19:58.892Z,99.99
2017-09-20T06:20:58.794Z,99.99
2017-09-20T06:21:59.134Z,99.99
2017-09-20T06:22:58.782Z,99.99
2017-09-20T06:23:58.764Z,99.99
2017-09-20T06:24:58.753Z,99.99
2017-09-20T06:25:59.070Z,99.99
2017-09-20T06:26:59.063Z,99.99
2017-09-20T06:27:58.723Z,99.99
2017-09-20T06:28:58.712Z,99.99
2017-09-20T06:29:59.032Z,99.99
2017-09-20T06:30:58.696Z,99.99
2017-09-20T06:31:59.046Z,99.99
2017-09-20T06:32:58.680Z,99.99
2017-09-20T06:33:58.665Z,99.99
2017-09-20T06:34:58.988Z,99.99
2017-09-20T06:35:58.976Z,99.99
2017-09-20T06:36:58.634Z,99.99
2017-09-20T06:37:58.625Z,99.99
2017-09-20T06:38:58.617Z,99.99
2017-09-20T06:39:58.605Z,99.99
2017-09-20T06:40:58.595Z,99.99
2017-09-20T06:41:58.916Z,99.99
2017-09-20T06:42:58.592Z,99.99
2017-09-20T06:43:58.568Z,99.99
2017-09-20T06:44:58.885Z,99.99
2017-09-20T06:45:58.553Z,99.99
2017-09-20T06:46:58.868Z,99.99
2017-09-20T06:47:58.861Z,99.99
2017-09-20T06:48:58.875Z,99.99
2017-09-20T06:49:58.514Z,99.99
2017-09-20T06:50:58.503Z,99.99
2017-09-20T06:51:58.820Z,99.99
2017-09-20T06:52:58.482Z,99.99
2017-09-20T06:53:58.474Z,99.99
2017-09-20T06:54:58.465Z,99.99
2017-09-20T06:55:58.457Z,99.99
2017-09-20T06:56:58.786Z,99.99
2017-09-20T06:57:58.783Z,99.99
2017-09-20T06:58:58.433Z,99.99
2017-09-20T06:59:58.748Z,99.99
2017-09-20T07:00:58.742Z,99.99
2017-09-20T07:01:58.732Z,99.99
2017-09-20T07:02:58.717Z,99.99
2017-09-20T07:03:58.384Z,99.99
2017-09-20T07:04:58.723Z,99.99
2017-09-20T07:05:58.693Z,99.99
2017-09-20T07:06:58.371Z,99.99
2017-09-20T07:07:58.348Z,99.99
2017-09-20T07:08:58.340Z,99.99
2017-09-20T07:09:58.352Z,99.99
2017-09-20T07:10:58.322Z,99.99
2017-09-20T07:11:58.642Z,99.99
2017-09-20T07:12:58.321Z,99.99
2017-09-20T07:13:58.623Z,99.99
2017-09-20T07:14:58.290Z,99.99
2017-09-20T07:15:58.277Z,99.99
2017-09-20T07:16:58.616Z,99.99
2017-09-20T07:17:58.596Z,99.99
2017-09-20T07:18:58.253Z,99.99
2017-09-20T07:19:58.589Z,99.99
2017-09-20T07:20:58.234Z,99.99
2017-09-20T07:21:58.227Z,99.99
2017-09-20T07:22:58.553Z,99.99
2017-09-20T07:23:58.224Z,99.99
2017-09-20T07:24:58.197Z,99.99
2017-09-20T07:25:58.214Z,99.99
2017-09-20T07:26:58.509Z,99.99
2017-09-20T07:27:58.181Z,99.99
2017-09-20T07:28:58.513Z,99.99
2017-09-20T07:29:58.173Z,99.99
2017-09-20T07:30:58.163Z,99.99
2017-09-20T07:31:58.480Z,99.99
2017-09-20T07:32:58.140Z,99.99
2017-09-20T07:33:58.127Z,99.99
2017-09-20T07:34:58.447Z,99.99
2017-09-20T07:35:58.109Z,99.99
2017-09-20T07:36:58.099Z,99.99
2017-09-20T07:37:58.091Z,99.99
2017-09-20T07:38:58.082Z,99.99
2017-09-20T07:39:58.074Z,99.99
2017-09-20T07:40:58.396Z,99.99
2017-09-20T07:41:58.061Z,99.99
2017-09-20T07:42:58.051Z,99.99
2017-09-20T07:43:58.048Z,99.99
2017-09-20T07:44:58.054Z,99.99
2017-09-20T07:45:58.366Z,99.99
2017-09-20T07:46:58.347Z,99.99
2017-09-20T07:47:58.010Z,99.99
2017-09-20T07:48:58.007Z,99.99
2017-09-20T07:49:57.995Z,99.99
2017-09-20T07:50:57.988Z,99.99
2017-09-20T07:51:57.978Z,99.99
2017-09-20T07:52:58.307Z,99.99
2017-09-20T07:53:57.961Z,99.99
2017-09-20T07:54:57.954Z,99.99
2017-09-20T07:55:57.953Z,99.99
2017-09-20T07:56:58.265Z,99.99
2017-09-20T07:57:57.929Z,99.66
2017-09-20T07:58:57.945Z,99.56
2017-09-20T07:59:57.913Z,99.99
2017-09-20T08:00:57.904Z,98.8
2017-09-20T08:01:57.900Z,98.51
2017-09-20T08:02:58.220Z,99.08
2017-09-20T08:03:58.210Z,98.51
2017-09-20T08:04:58.203Z,98.22
2017-09-20T08:05:57.876Z,99.37
2017-09-20T08:06:57.860Z,98.7
2017-09-20T08:07:57.851Z,98.99
2017-09-20T08:08:58.189Z,98.7
2017-09-20T08:09:58.169Z,97.94
2017-09-20T08:10:57.828Z,99.37
2017-09-20T08:11:57.823Z,98.22
2017-09-20T08:12:58.148Z,97.17
2017-09-20T08:13:57.807Z,97.66
2017-09-20T08:14:58.132Z,97.56
2017-09-20T08:15:58.136Z,97.94
2017-09-20T08:16:57.781Z,97.37
2017-09-20T08:17:57.777Z,98.8
2017-09-20T08:18:57.763Z,98.42
2017-09-20T08:19:57.961Z,98.61
2017-09-20T08:20:57.775Z,99.37
2017-09-20T08:21:57.742Z,99.18
2017-09-20T08:22:58.064Z,99.85
2017-09-20T08:23:57.746Z,99.99
2017-09-20T08:24:58.046Z,99.99
2017-09-20T08:25:58.055Z,99.99
2017-09-20T08:26:57.703Z,99.99
2017-09-20T08:27:57.696Z,99.99
2017-09-20T08:28:57.706Z,99.99
2017-09-20T08:29:57.679Z,99.37
2017-09-20T08:30:58.001Z,98.32
2017-09-20T08:31:57.664Z,97.03
2017-09-20T08:32:57.655Z,94.93
2017-09-20T08:33:57.669Z,90.3
2017-09-20T08:34:57.641Z,87.05
2017-09-20T08:35:57.637Z,87.91
2017-09-20T08:36:57.628Z,88.39
2017-09-20T08:37:57.623Z,87.05
2017-09-20T08:38:57.616Z,85.42
2017-09-20T08:39:57.937Z,86.34
2017-09-20T08:40:57.609Z,87.68
2017-09-20T08:41:57.613Z,89.59
2017-09-20T08:42:57.588Z,89.3
2017-09-20T08:43:57.584Z,88.59
2017-09-20T08:44:57.577Z,89.54
2017-09-20T08:45:57.567Z,91.07
2017-09-20T08:46:57.563Z,92.07
2017-09-20T08:47:57.553Z,91.41
2017-09-20T08:48:57.547Z,92.36
2017-09-20T08:49:57.887Z,93.98
2017-09-20T08:50:57.533Z,95.65
2017-09-20T08:51:57.526Z,96.32
2017-09-20T08:52:57.533Z,97.56
2017-09-20T08:53:57.546Z,98.51
2017-09-20T08:54:57.521Z,99.99
2017-09-20T08:55:57.829Z,99.99
2017-09-20T08:56:57.487Z,99.99
2017-09-20T08:57:57.481Z,99.99
2017-09-20T08:58:57.802Z,99.99
2017-09-20T08:59:57.478Z,99.99
2017-09-20T09:00:57.788Z,99.99
2017-09-20T09:01:57.448Z,99.99
2017-09-20T09:02:57.768Z,99.99
2017-09-20T09:03:57.438Z,99.99
2017-09-20T09:04:57.427Z,99.99
2017-09-20T09:05:57.418Z,99.99
2017-09-20T09:06:57.415Z,99.99
2017-09-20T09:07:57.730Z,99.99
2017-09-20T09:08:57.416Z,99.99
2017-09-20T09:09:57.386Z,99.99
2017-09-20T09:10:57.385Z,99.99
2017-09-20T09:11:57.372Z,99.99
2017-09-20T09:12:57.374Z,99.99
2017-09-20T09:13:57.356Z,99.99
2017-09-20T09:14:57.680Z,99.99
2017-09-20T09:15:57.707Z,99.99
2017-09-20T09:16:57.680Z,99.08
2017-09-20T09:17:57.346Z,99.99
2017-09-20T09:18:57.661Z,98.94
2017-09-20T09:19:57.637Z,99.7
2017-09-20T09:20:57.631Z,99.99
2017-09-20T09:21:57.620Z,99.89
2017-09-20T09:22:57.616Z,99.99
2017-09-20T09:23:57.278Z,99.99
2017-09-20T09:24:57.267Z,99.99
2017-09-20T09:25:57.259Z,99.99
2017-09-20T09:26:57.581Z,99.99
2017-09-20T09:27:57.245Z,99.99
2017-09-20T09:28:57.252Z,99.99
2017-09-20T09:29:57.261Z,99.99
2017-09-20T09:30:57.218Z,99.99
2017-09-20T09:31:57.209Z,99.99
2017-09-20T09:32:57.198Z,99.99
2017-09-20T09:33:57.519Z,99.99
2017-09-20T09:34:57.181Z,99.99
2017-09-20T09:35:57.181Z,99.99
2017-09-20T09:36:57.164Z,99.99
2017-09-20T09:37:57.499Z,99.99
2017-09-20T09:38:57.146Z,99.99
2017-09-20T09:39:57.498Z,99.99
2017-09-20T09:40:57.136Z,99.99
2017-09-20T09:41:57.121Z,99.99
2017-09-20T09:42:57.154Z,99.99
2017-09-20T09:43:57.465Z,99.99
2017-09-20T09:44:57.096Z,99.99
2017-09-20T09:45:57.092Z,99.99
2017-09-20T09:46:57.419Z,99.99
2017-09-20T09:47:57.401Z,99.99
2017-09-20T09:48:57.058Z,99.99
2017-09-20T09:49:57.066Z,99.99
2017-09-20T09:50:57.373Z,99.99
2017-09-20T09:51:57.028Z,99.99
2017-09-20T09:52:57.020Z,99.99
2017-09-20T09:53:57.009Z,99.99
2017-09-20T09:54:57.328Z,99.99
2017-09-20T09:55:56.993Z,99.99
2017-09-20T09:56:57.312Z,99.99
2017-09-20T09:57:57.315Z,99.99
2017-09-20T09:58:56.964Z,99.99
2017-09-20T09:59:56.956Z,99.99
2017-09-20T10:00:57.283Z,99.99
2017-09-20T10:01:57.262Z,99.99
2017-09-20T10:02:57.260Z,99.99
2017-09-20T10:03:56.919Z,99.99
2017-09-20T10:04:56.909Z,99.99
2017-09-20T10:05:56.901Z,99.99
2017-09-20T10:06:56.899Z,99.99
2017-09-20T10:07:56.882Z,99.99
2017-09-20T10:08:57.207Z,99.99
2017-09-20T10:09:56.862Z,99.99
2017-09-20T10:10:56.856Z,99.99
2017-09-20T10:11:57.180Z,99.99
2017-09-20T10:12:56.840Z,99.99
2017-09-20T10:13:56.851Z,99.99
2017-09-20T10:14:57.151Z,99.99
2017-09-20T10:15:56.819Z,99.99
2017-09-20T10:16:57.132Z,99.99
2017-09-20T10:17:57.127Z,99.99
2017-09-20T10:18:56.790Z,99.99
2017-09-20T10:19:56.790Z,99.99
2017-09-20T10:20:56.780Z,99.99
2017-09-20T10:21:56.765Z,99.99
2017-09-20T10:22:56.758Z,99.71
2017-09-20T10:23:56.746Z,98.66
2017-09-20T10:24:56.737Z,99.42
2017-09-20T10:25:56.731Z,99.99
2017-09-20T10:26:56.750Z,99.99
2017-09-20T10:27:56.722Z,97.32
2017-09-20T10:28:56.728Z,97.8
2017-09-20T10:29:56.701Z,99.52
2017-09-20T10:30:56.691Z,99.42
2017-09-20T10:31:56.685Z,97.8
2017-09-20T10:32:56.712Z,97.13
2017-09-20T10:33:56.723Z,97.13
2017-09-20T10:34:56.664Z,95.36
2017-09-20T10:35:56.660Z,95.27
2017-09-20T10:36:56.647Z,94.12
2017-09-20T10:37:57.006Z,94.12
2017-09-20T10:38:56.973Z,94.7
2017-09-20T10:39:56.647Z,93.65
2017-09-20T10:40:56.620Z,93.17
2017-09-20T10:41:56.939Z,93.17
2017-09-20T10:42:56.953Z,92.31
2017-09-20T10:43:56.599Z,91.16
2017-09-20T10:44:56.923Z,91.4
2017-09-20T10:45:56.913Z,92.36
2017-09-20T10:46:56.586Z,93.79
2017-09-20T10:47:56.901Z,94.55
2017-09-20T10:48:56.562Z,94.27
2017-09-20T10:49:56.556Z,92.93
2017-09-20T10:50:56.894Z,91.5
2017-09-20T10:51:56.869Z,90.54
2017-09-20T10:52:56.534Z,90.45
2017-09-20T10:53:56.527Z,91.11
2017-09-20T10:54:56.520Z,92.45
2017-09-20T10:55:56.842Z,92.16
2017-09-20T10:56:56.507Z,91.88
2017-09-20T10:57:56.500Z,89.87
2017-09-20T10:58:56.494Z,89.87
2017-09-20T10:59:56.488Z,89.59
2017-09-20T11:00:56.480Z,90.73
2017-09-20T11:01:56.476Z,90.06
2017-09-20T11:02:56.802Z,89.2
2017-09-20T11:03:56.462Z,87.87
2017-09-20T11:04:56.787Z,87.39
2017-09-20T11:05:56.782Z,88.34
2017-09-20T11:06:56.441Z,90.25
2017-09-20T11:07:56.653Z,89.3
2017-09-20T11:08:56.588Z,87.05
2017-09-20T11:09:56.423Z,85.71
2017-09-20T11:10:56.557Z,88.77
2017-09-20T11:11:56.434Z,85.81
2017-09-20T11:12:56.406Z,85.62
2017-09-20T11:13:56.399Z,85.81
2017-09-20T11:14:56.394Z,85.62
2017-09-20T11:15:56.389Z,85.81
2017-09-20T11:16:56.708Z,86.96
2017-09-20T11:17:56.719Z,85.71
2017-09-20T11:18:56.700Z,85.42
2017-09-20T11:19:56.692Z,84.23
2017-09-20T11:20:56.357Z,82.89
2017-09-20T11:21:56.353Z,83.8
2017-09-20T11:22:56.361Z,85.71
2017-09-20T11:23:56.675Z,85.52
2017-09-20T11:24:56.669Z,85.19
2017-09-20T11:25:56.653Z,83.67
2017-09-20T11:26:56.671Z,83.09
2017-09-20T11:27:56.313Z,83.38
2017-09-20T11:28:56.333Z,84.2
2017-09-20T11:29:56.300Z,83.05
2017-09-20T11:30:56.293Z,84.05
2017-09-20T11:31:56.618Z,84
2017-09-20T11:32:56.281Z,85.25
2017-09-20T11:33:56.602Z,86.1
2017-09-20T11:34:56.274Z,85
2017-09-20T11:35:56.589Z,87.39
2017-09-20T11:36:56.274Z,88.15
2017-09-20T11:37:56.578Z,86.96
2017-09-20T11:38:56.242Z,84.95
2017-09-20T11:39:56.234Z,83.51
2017-09-20T11:40:56.240Z,83.86
2017-09-20T11:41:56.223Z,84.62
2017-09-20T11:42:56.218Z,84.56
2017-09-20T11:43:56.224Z,85.24
2017-09-20T11:44:56.205Z,84.95
2017-09-20T11:45:56.527Z,84.38
2017-09-20T11:46:56.191Z,84.56
2017-09-20T11:47:56.185Z,83.42
2017-09-20T11:48:56.505Z,83.51
2017-09-20T11:49:56.173Z,84.56
2017-09-20T11:50:56.494Z,81.89
2017-09-20T11:51:56.159Z,80.8
2017-09-20T11:52:56.153Z,82.04
2017-09-20T11:53:56.490Z,83.28
2017-09-20T11:54:56.181Z,83.47
2017-09-20T11:55:56.469Z,83.34
2017-09-20T11:56:56.177Z,83.05
2017-09-20T11:57:56.119Z,83.43
2017-09-20T11:58:56.112Z,84.2
2017-09-20T11:59:56.440Z,83.87
2017-09-20T12:00:56.430Z,84.06
2017-09-20T12:01:56.424Z,84.92
2017-09-20T12:02:56.422Z,85.58
2017-09-20T12:03:56.080Z,84.63
2017-09-20T12:04:56.403Z,82.91
2017-09-20T12:05:56.063Z,83.77
2017-09-20T12:06:56.058Z,85.21
2017-09-20T12:07:56.052Z,86.06
2017-09-20T12:08:56.395Z,86.82
2017-09-20T12:09:56.041Z,85.21
2017-09-20T12:10:56.035Z,83.29
2017-09-20T12:11:56.022Z,84.25
2017-09-20T12:12:56.352Z,85.91
2017-09-20T12:13:56.338Z,85.82
2017-09-20T12:14:55.999Z,85.25
2017-09-20T12:15:56.008Z,84.58
2017-09-20T12:16:55.987Z,84.33
2017-09-20T12:17:55.983Z,82.61
2017-09-20T12:18:56.323Z,82.42
2017-09-20T12:19:55.965Z,82.23
2017-09-20T12:20:55.973Z,80.27
2017-09-20T12:21:55.954Z,79.22
2017-09-20T12:22:55.955Z,77.82
2017-09-20T12:23:55.940Z,76.77
2017-09-20T12:24:56.290Z,75.52
2017-09-20T12:25:55.933Z,75.24
2017-09-20T12:26:55.922Z,75.34
2017-09-20T12:27:55.913Z,74.95
2017-09-20T12:28:55.928Z,75.14
2017-09-20T12:29:56.250Z,76.2
2017-09-20T12:30:55.896Z,75.09
2017-09-20T12:31:55.889Z,73.17
2017-09-20T12:32:55.886Z,72.5
2017-09-20T12:33:55.876Z,71.55
2017-09-20T12:34:55.871Z,70.5
2017-09-20T12:35:56.198Z,71.83
2017-09-20T12:36:56.186Z,71.45
2017-09-20T12:37:56.175Z,71.07
2017-09-20T12:38:55.844Z,72.88
2017-09-20T12:39:55.858Z,73.55
2017-09-20T12:40:56.159Z,74.9
2017-09-20T12:41:55.845Z,74.9
2017-09-20T12:42:55.822Z,74.95
2017-09-20T12:43:56.163Z,73.23
2017-09-20T12:44:55.809Z,74.76
2017-09-20T12:45:56.130Z,75.52
2017-09-20T12:46:55.798Z,76.77
2017-09-20T12:47:56.119Z,76.1
2017-09-20T12:48:55.795Z,75.62
2017-09-20T12:49:55.803Z,74.95
2017-09-20T12:50:55.777Z,75.91
2017-09-20T12:51:56.102Z,76.54
2017-09-20T12:52:55.766Z,77.4